createdAt,value
2023-03-15T00:00:11.536Z,2.73
2023-03-15T00:02:39.912Z,3.17
2023-03-15T00:05:08.562Z,5.43
2023-03-15T00:07:36.629Z,3.53
2023-03-15T00:10:05.416Z,5.40
2023-03-15T00:12:35.172Z,4.07
2023-03-15T00:15:03.418Z,6.30
2023-03-15T00:17:34.880Z,3.50
2023-03-15T00:20:04.210Z,3.27
2023-03-15T00:22:32.294Z,3.37
2023-03-15T00:25:00.388Z,6.37
2023-03-15T00:27:30.117Z,3.20
2023-03-15T00:29:59.514Z,4.27
2023-03-15T00:32:27.731Z,2.60
2023-03-15T00:34:55.836Z,3.47
2023-03-15T00:37:25.754Z,4.20
2023-03-15T00:39:55.608Z,3.33
2023-03-15T00:42:27.769Z,2.60
2023-03-15T01:00:14.329Z,1.90
2023-03-15T01:06:33.196Z,2.27
2023-03-15T01:09:01.783Z,2.37
2023-03-15T01:11:30.024Z,2.57
2023-03-15T01:13:59.956Z,3.70
2023-03-15T01:16:29.723Z,4.00
2023-03-15T01:18:57.971Z,3.50
2023-03-15T01:21:26.253Z,3.07
2023-03-15T01:23:55.120Z,2.80
2023-03-15T01:26:23.632Z,2.23
2023-03-15T01:28:52.126Z,1.73
2023-03-15T01:31:22.948Z,2.97
2023-03-15T01:33:52.484Z,2.67
2023-03-15T01:36:21.232Z,1.57
2023-03-15T01:38:51.100Z,1.90
2023-03-15T01:41:20.053Z,3.07
2023-03-15T01:43:48.797Z,2.17
2023-03-15T01:46:24.644Z,2.40
2023-03-15T01:49:01.659Z,3.33
2023-03-15T01:51:35.839Z,2.57
2023-03-15T01:54:09.461Z,3.00
2023-03-15T01:56:41.128Z,2.90
2023-03-15T01:59:15.213Z,3.50
2023-03-15T02:01:45.794Z,4.23
2023-03-15T02:04:19.843Z,4.60
2023-03-15T02:06:50.580Z,5.07
2023-03-15T02:09:22.174Z,3.23
2023-03-15T02:11:50.398Z,3.00
2023-03-15T02:14:19.129Z,3.90
2023-03-15T02:16:47.215Z,2.30
2023-03-15T02:19:29.872Z,2.57
2023-03-15T02:22:06.402Z,2.03
2023-03-15T02:24:43.968Z,3.03
2023-03-15T02:27:12.384Z,2.30
2023-03-15T02:29:42.166Z,1.60
2023-03-15T02:32:10.617Z,1.20
2023-03-15T02:34:38.657Z,5.50
2023-03-15T02:37:06.768Z,1.53
2023-03-15T02:39:34.930Z,1.27
2023-03-15T02:42:03.398Z,1.47
2023-03-15T02:44:34.769Z,2.10
2023-03-15T02:47:08.864Z,1.20
2023-03-15T02:49:41.729Z,1.57
2023-03-15T02:52:10.643Z,2.60
2023-03-15T02:54:39.395Z,1.97
2023-03-15T02:57:07.925Z,1.67
2023-03-15T03:08:18.992Z,2.23
2023-03-15T03:10:47.015Z,1.87
2023-03-15T03:13:15.627Z,2.70
2023-03-15T03:15:45.481Z,2.23
2023-03-15T03:18:13.728Z,1.37
2023-03-15T03:20:41.859Z,2.03
2023-03-15T03:23:09.998Z,1.67
2023-03-15T03:25:39.530Z,1.57
2023-03-15T03:28:07.915Z,2.03
2023-03-15T03:30:36.932Z,1.97
2023-03-15T03:33:05.706Z,1.80
2023-03-15T03:35:33.921Z,2.00
2023-03-15T03:38:02.023Z,2.37
2023-03-15T03:40:30.139Z,2.00
2023-03-15T03:54:33.230Z,4.23
2023-03-15T03:57:01.377Z,3.50
2023-03-15T03:59:29.513Z,3.37
2023-03-15T04:01:57.660Z,2.63
2023-03-15T04:04:26.479Z,3.57
2023-03-15T04:06:54.661Z,2.83
2023-03-15T04:09:25.003Z,3.40
2023-03-15T04:11:54.685Z,5.37
2023-03-15T04:14:24.700Z,5.07
2023-03-15T04:16:54.606Z,3.97
2023-03-15T04:19:23.281Z,5.27
2023-03-15T04:21:52.495Z,4.67
2023-03-15T04:24:20.589Z,4.00
2023-03-15T04:26:48.698Z,5.73
2023-03-15T04:29:18.140Z,7.00
2023-03-15T04:31:46.230Z,5.43
2023-03-15T04:34:14.515Z,5.87
2023-03-15T04:36:42.895Z,5.67
2023-03-15T04:39:12.518Z,5.50
2023-03-15T04:41:40.633Z,4.70
2023-03-15T04:44:08.843Z,4.67
2023-03-15T04:46:38.348Z,4.30
2023-03-15T04:49:06.543Z,9.20
2023-03-15T04:51:35.114Z,6.50
2023-03-15T04:54:04.302Z,7.37
2023-03-15T04:56:32.436Z,5.83
2023-03-15T04:59:00.732Z,9.20
2023-03-15T05:01:31.080Z,9.77
2023-03-15T05:04:00.879Z,8.87
2023-03-15T05:06:29.664Z,6.60
2023-03-15T05:08:58.053Z,8.83
2023-03-15T05:11:26.302Z,7.50
2023-03-15T05:13:54.553Z,8.03
2023-03-15T05:16:22.742Z,7.93
2023-03-15T05:18:50.894Z,9.67
2023-03-15T05:21:20.672Z,8.37
2023-03-15T05:23:48.761Z,8.60
2023-03-15T05:26:16.875Z,9.17
2023-03-15T05:28:45.835Z,8.03
2023-03-15T05:31:14.050Z,7.83
2023-03-15T05:33:46.802Z,8.00
2023-03-15T05:36:15.502Z,10.70
2023-03-15T05:38:45.738Z,13.20
2023-03-15T05:41:18.209Z,11.30
2023-03-15T05:43:46.488Z,12.40
2023-03-15T05:46:14.806Z,8.87
2023-03-15T05:48:42.971Z,9.97
2023-03-15T05:51:11.060Z,9.50
2023-03-15T05:53:39.286Z,7.47
2023-03-15T05:56:09.796Z,8.07
2023-03-15T05:58:41.257Z,14.03
2023-03-15T06:01:09.898Z,14.27
2023-03-15T06:03:38.401Z,11.00
2023-03-15T06:06:06.880Z,8.77
2023-03-15T06:08:35.007Z,10.37
2023-03-15T06:11:03.219Z,10.07
2023-03-15T06:13:33.322Z,10.30
2023-03-15T06:16:01.528Z,10.27
2023-03-15T06:18:29.651Z,8.97
2023-03-15T06:20:57.766Z,8.47
2023-03-15T06:23:25.946Z,12.47
2023-03-15T06:25:54.194Z,14.87
2023-03-15T06:28:22.311Z,11.57
2023-03-15T06:30:51.849Z,13.83
2023-03-15T06:33:19.945Z,10.80
2023-03-15T06:35:48.415Z,13.57
2023-03-15T06:38:16.486Z,12.47
2023-03-15T06:40:45.358Z,8.93
2023-03-15T06:43:18.370Z,10.43
2023-03-15T06:45:47.011Z,12.17
2023-03-15T06:48:17.451Z,9.53
2023-03-15T06:50:47.592Z,8.73
2023-03-15T06:53:16.459Z,8.87
2023-03-15T06:55:45.341Z,7.90
2023-03-15T06:58:13.940Z,5.80
2023-03-15T07:00:42.131Z,5.60
2023-03-15T07:03:10.289Z,7.07
2023-03-15T07:05:39.752Z,7.90
2023-03-15T07:08:08.098Z,6.67
2023-03-15T07:10:36.523Z,4.93
2023-03-15T07:13:06.879Z,5.33
2023-03-15T07:15:37.058Z,4.73
2023-03-15T07:18:05.368Z,4.97
2023-03-15T07:20:35.055Z,5.53
2023-03-15T07:23:05.781Z,3.43
2023-03-15T07:25:42.244Z,3.50
2023-03-15T07:28:20.369Z,3.70
2023-03-15T07:30:54.840Z,3.87
2023-03-15T07:33:23.673Z,5.23
2023-03-15T07:35:53.671Z,3.97
2023-03-15T07:38:24.218Z,3.50
2023-03-15T07:40:52.477Z,5.07
2023-03-15T07:43:20.815Z,4.90
2023-03-15T07:45:49.001Z,4.80
2023-03-15T07:48:17.095Z,6.33
2023-03-15T07:55:13.142Z,4.60
2023-03-15T07:57:42.768Z,3.57
2023-03-15T08:00:13.695Z,6.40
2023-03-15T08:02:42.192Z,6.87
2023-03-15T08:05:10.767Z,4.80
2023-03-15T08:07:39.044Z,5.60
2023-03-15T08:10:08.300Z,4.57
2023-03-15T08:12:36.484Z,8.48
2023-03-15T08:15:06.650Z,6.50
2023-03-15T08:17:34.723Z,5.20
2023-03-15T08:20:09.603Z,5.70
2023-03-15T08:22:38.533Z,5.30
2023-03-15T08:25:07.617Z,4.90
2023-03-15T08:27:35.707Z,11.40
2023-03-15T08:30:05.948Z,5.88
2023-03-15T08:32:34.105Z,5.88
2023-03-15T08:35:02.202Z,5.35
2023-03-15T08:37:30.338Z,7.97
2023-03-15T08:40:05.300Z,4.15
2023-03-15T08:42:33.367Z,3.83
2023-03-15T08:45:02.210Z,4.90
2023-03-15T08:47:31.895Z,7.28
2023-03-15T08:49:59.983Z,3.58
2023-03-15T08:52:28.504Z,5.75
2023-03-15T08:54:56.823Z,4.15
2023-03-15T08:57:25.945Z,6.68
2023-03-15T08:59:54.456Z,3.67
2023-03-15T09:02:23.554Z,3.20
2023-03-15T09:04:53.646Z,5.13
2023-03-15T09:07:22.404Z,3.25
2023-03-15T09:09:54.357Z,5.78
2023-03-15T09:12:23.247Z,6.22
2023-03-15T09:14:51.379Z,6.10
2023-03-15T09:17:19.475Z,5.20
2023-03-15T09:19:47.626Z,5.10
2023-03-15T09:22:29.099Z,4.90
2023-03-15T09:25:06.035Z,4.50
2023-03-15T09:27:34.636Z,5.97
2023-03-15T09:30:03.246Z,3.88
2023-03-15T09:32:36.554Z,4.13
2023-03-15T09:35:05.277Z,6.45
2023-03-15T09:37:34.887Z,3.53
2023-03-15T09:40:04.763Z,4.00
2023-03-15T09:42:39.460Z,4.25
2023-03-15T09:45:14.743Z,4.13
2023-03-15T09:47:54.321Z,5.75
2023-03-15T09:50:28.264Z,5.00
2023-03-15T09:53:03.227Z,5.60
2023-03-15T09:55:31.484Z,4.25
2023-03-15T09:58:01.599Z,4.13
2023-03-15T10:00:37.595Z,3.88
2023-03-15T10:03:09.914Z,4.23
2023-03-15T10:05:43.125Z,3.50
2023-03-15T10:08:18.679Z,4.17
2023-03-15T10:10:53.107Z,5.80
2023-03-15T10:13:37.657Z,3.13
2023-03-15T10:16:20.313Z,2.03
2023-03-15T10:19:04.717Z,3.07
2023-03-15T10:21:40.131Z,2.57
2023-03-15T10:24:18.713Z,3.90
2023-03-15T10:26:48.175Z,4.07
2023-03-15T10:29:21.274Z,4.27
2023-03-15T10:31:52.726Z,4.40
2023-03-15T10:34:22.200Z,3.23
2023-03-15T10:36:55.623Z,6.43
2023-03-15T10:39:26.943Z,2.13
2023-03-15T10:41:55.279Z,3.07
2023-03-15T10:44:26.879Z,3.63
2023-03-15T10:47:16.116Z,3.50
2023-03-15T10:49:50.480Z,7.20
2023-03-15T10:52:31.777Z,4.97
2023-03-15T10:55:05.802Z,3.77
2023-03-15T10:57:39.102Z,4.97
2023-03-15T11:00:23.986Z,4.43
2023-03-15T11:03:02.947Z,3.90
2023-03-15T11:05:33.273Z,2.27
2023-03-15T11:08:02.495Z,2.93
2023-03-15T11:10:36.195Z,2.47
2023-03-15T11:13:19.831Z,2.73
2023-03-15T11:16:01.481Z,3.13
2023-03-15T11:18:34.551Z,3.43
2023-03-15T11:21:07.882Z,4.77
2023-03-15T11:23:39.044Z,2.93
2023-03-15T11:26:29.407Z,4.67
2023-03-15T11:29:02.100Z,6.03
2023-03-15T11:31:31.669Z,5.73
2023-03-15T11:34:04.459Z,2.97
2023-03-15T11:36:37.091Z,5.70
2023-03-15T11:39:05.903Z,3.50
2023-03-15T11:41:42.135Z,2.20
2023-03-15T11:44:17.557Z,2.13
2023-03-15T11:46:50.097Z,1.93
2023-03-15T11:49:26.008Z,4.77
2023-03-15T11:51:57.241Z,4.23
2023-03-15T11:54:29.751Z,4.77
2023-03-15T11:57:04.395Z,4.00
2023-03-15T11:59:33.911Z,2.63
2023-03-15T12:02:31.307Z,3.47
2023-03-15T12:05:03.969Z,2.80
2023-03-15T12:07:59.352Z,1.87
2023-03-15T12:10:47.661Z,3.43
2023-03-15T12:13:26.957Z,3.30
2023-03-15T12:15:56.008Z,6.20
2023-03-15T12:18:40.068Z,3.10
2023-03-15T12:21:18.071Z,3.93
2023-03-15T12:23:50.571Z,3.57
2023-03-15T12:34:38.537Z,1.57
2023-03-15T12:37:14.240Z,1.70
2023-03-15T12:39:48.493Z,1.20
2023-03-15T12:42:49.804Z,1.40
2023-03-15T12:45:37.607Z,2.80
2023-03-15T12:48:24.600Z,2.53
2023-03-15T12:51:05.597Z,2.13
2023-03-15T12:53:54.044Z,1.80
2023-03-15T12:56:35.185Z,3.10
2023-03-15T12:59:23.443Z,1.57
2023-03-15T13:01:52.698Z,4.20
2023-03-15T13:04:23.016Z,3.73
2023-03-15T13:07:05.409Z,1.50
2023-03-15T13:09:57.997Z,3.40
2023-03-15T13:12:31.745Z,2.47
2023-03-15T13:15:05.835Z,3.50
2023-03-15T13:17:42.395Z,3.30
2023-03-15T13:20:30.059Z,3.03
2023-03-15T13:23:07.811Z,3.13
2023-03-15T13:25:43.810Z,2.17
2023-03-15T13:28:22.472Z,2.87
2023-03-15T13:30:53.439Z,6.93
2023-03-15T13:33:24.601Z,2.33
2023-03-15T13:35:58.729Z,5.00
2023-03-15T13:38:33.033Z,3.80
2023-03-15T13:41:05.026Z,3.77
2023-03-15T13:43:36.682Z,4.07
2023-03-15T13:46:05.517Z,3.23
2023-03-15T13:48:35.221Z,5.23
2023-03-15T13:51:07.006Z,2.33
2023-03-15T13:53:48.992Z,1.93
2023-03-15T13:56:24.869Z,0.93
2023-03-15T13:58:53.127Z,1.67
2023-03-15T14:01:23.315Z,6.17
2023-03-15T14:03:58.512Z,2.07
2023-03-15T14:06:27.992Z,2.23
2023-03-15T14:09:02.133Z,2.83
2023-03-15T14:11:37.472Z,4.07
2023-03-15T14:14:24.511Z,3.93
2023-03-15T14:17:04.936Z,2.07
2023-03-15T14:19:35.347Z,2.07
2023-03-15T14:22:13.667Z,5.93
2023-03-15T14:24:44.271Z,2.23
2023-03-15T14:27:19.562Z,4.17
2023-03-15T14:29:49.805Z,3.07
2023-03-15T14:32:27.784Z,5.73
2023-03-15T14:35:02.595Z,2.77
2023-03-15T14:37:36.245Z,3.20
2023-03-15T14:40:15.339Z,2.23
2023-03-15T14:42:45.174Z,2.27
2023-03-15T14:45:13.965Z,3.43
2023-03-15T14:47:56.240Z,1.93
2023-03-15T14:50:27.004Z,3.63
2023-03-15T14:52:55.507Z,1.90
2023-03-15T14:55:29.279Z,4.30
2023-03-15T14:58:02.150Z,2.93
2023-03-15T15:00:31.218Z,5.77
2023-03-15T15:03:00.036Z,3.70
2023-03-15T15:05:29.752Z,4.23
2023-03-15T15:08:04.346Z,2.30
2023-03-15T15:10:34.835Z,3.20
2023-03-15T15:13:07.209Z,1.87
2023-03-15T15:15:53.842Z,1.53
2023-03-15T15:18:23.906Z,2.50
2023-03-15T15:20:55.502Z,1.33
2023-03-15T15:23:26.131Z,2.27
2023-03-15T15:25:57.493Z,3.03
2023-03-15T15:28:35.420Z,2.20
2023-03-15T15:31:05.871Z,1.23
2023-03-15T15:33:34.369Z,1.80
2023-03-15T15:36:03.059Z,2.90
2023-03-15T15:38:38.383Z,3.10
2023-03-15T15:41:07.844Z,2.47
2023-03-15T15:43:37.331Z,3.43
2023-03-15T15:46:05.609Z,2.70
2023-03-15T15:48:35.700Z,3.20
2023-03-15T15:51:03.853Z,1.63
2023-03-15T15:53:33.871Z,2.40
2023-03-15T15:56:02.694Z,2.33
2023-03-15T15:58:30.860Z,2.30
2023-03-15T16:01:00.628Z,2.43
2023-03-15T16:03:28.867Z,1.47
2023-03-15T16:05:57.055Z,2.23
2023-03-15T16:08:26.846Z,4.80
2023-03-15T16:10:55.041Z,3.10
2023-03-15T16:13:23.264Z,1.57
2023-03-15T16:15:51.415Z,2.37
2023-03-15T16:18:20.964Z,2.73
2023-03-15T16:20:49.250Z,4.10
2023-03-15T16:23:21.926Z,2.43
2023-03-15T16:25:53.237Z,1.57
2023-03-15T16:28:21.493Z,1.47
2023-03-15T16:30:49.698Z,4.17
2023-03-15T16:33:20.894Z,2.13
2023-03-15T16:35:50.263Z,2.53
2023-03-15T16:38:26.327Z,1.90
2023-03-15T16:40:54.537Z,3.97
2023-03-15T16:43:22.639Z,2.23
2023-03-15T16:45:50.832Z,2.23
2023-03-15T16:48:20.848Z,2.37
2023-03-15T16:50:49.080Z,2.70
2023-03-15T16:53:17.589Z,2.10
2023-03-15T16:55:45.886Z,2.20
2023-03-15T16:58:21.090Z,0.80
2023-03-15T17:00:49.406Z,5.73
2023-03-15T17:03:18.822Z,2.13
2023-03-15T17:05:49.454Z,1.40
2023-03-15T17:08:21.362Z,2.53
2023-03-15T17:10:50.359Z,2.60
2023-03-15T17:13:25.758Z,2.40
2023-03-15T17:15:54.278Z,2.83
2023-03-15T17:18:28.409Z,3.73
2023-03-15T17:20:58.538Z,2.13
2023-03-15T17:23:26.983Z,6.90
2023-03-15T17:25:55.475Z,3.10
2023-03-15T17:28:24.199Z,2.83
2023-03-15T17:30:59.630Z,10.20
2023-03-15T17:33:37.615Z,7.33
2023-03-15T17:36:11.411Z,3.77
2023-03-15T17:38:42.496Z,5.00
2023-03-15T17:41:21.473Z,4.60
2023-03-15T17:43:50.672Z,4.13
2023-03-15T17:46:20.195Z,6.80
2023-03-15T17:48:48.655Z,6.60
2023-03-15T17:51:22.309Z,4.07
2023-03-15T17:53:51.733Z,4.10
2023-03-15T17:56:24.000Z,5.40
2023-03-15T17:58:53.103Z,5.63
2023-03-15T18:01:24.821Z,6.97
2023-03-15T18:03:54.044Z,4.80
2023-03-15T18:06:24.656Z,3.07
2023-03-15T18:08:53.632Z,4.40
2023-03-15T18:11:26.163Z,2.73
2023-03-15T18:13:55.806Z,3.93
2023-03-15T18:20:09.008Z,4.63
2023-03-15T18:22:40.504Z,2.00
2023-03-15T18:25:10.052Z,5.60
2023-03-15T18:27:38.395Z,5.00
2023-03-15T18:30:07.606Z,4.77
2023-03-15T18:32:35.861Z,6.10
2023-03-15T18:35:04.663Z,5.10
2023-03-15T18:37:34.737Z,3.37
2023-03-15T18:40:05.409Z,4.17
2023-03-15T18:42:34.355Z,4.40
2023-03-15T18:45:02.644Z,3.37
2023-03-15T18:47:30.822Z,4.60
2023-03-15T18:50:09.612Z,9.90
2023-03-15T18:52:38.757Z,5.27
2023-03-15T18:55:10.097Z,3.17
2023-03-15T18:57:41.488Z,3.27
2023-03-15T19:00:13.797Z,2.23
2023-03-15T19:02:42.552Z,3.67
2023-03-15T19:05:11.743Z,3.47
2023-03-15T19:07:40.647Z,4.23
2023-03-15T19:10:14.521Z,3.83
2023-03-15T19:12:44.777Z,2.57
2023-03-15T19:15:17.249Z,3.80
2023-03-15T19:17:46.358Z,4.03
2023-03-15T19:20:16.995Z,10.03
2023-03-15T19:22:46.133Z,4.37
2023-03-15T19:25:15.953Z,4.57
2023-03-15T19:27:44.675Z,3.93
2023-03-15T19:30:17.968Z,2.47
2023-03-15T19:32:48.131Z,2.57
2023-03-15T19:35:17.666Z,8.87
2023-03-15T19:37:47.381Z,5.97
2023-03-15T19:40:18.472Z,4.73
2023-03-15T19:42:48.993Z,4.43
2023-03-15T19:45:21.063Z,4.90
2023-03-15T19:47:49.241Z,4.80
2023-03-15T19:50:17.755Z,2.83
2023-03-15T19:52:48.793Z,3.47
2023-03-15T19:55:20.485Z,3.73
2023-03-15T19:57:49.174Z,3.47
2023-03-15T20:00:19.744Z,4.10
2023-03-15T20:02:48.379Z,2.53
2023-03-15T20:05:18.184Z,2.67
2023-03-15T20:07:47.268Z,4.20
2023-03-15T20:10:17.315Z,2.97
2023-03-15T20:12:47.286Z,1.97
2023-03-15T20:15:17.851Z,2.57
2023-03-15T20:17:46.345Z,2.97
2023-03-15T20:20:14.966Z,2.83
2023-03-15T20:22:44.772Z,4.40
2023-03-15T20:25:14.450Z,6.17
2023-03-15T20:27:43.878Z,4.40
2023-03-15T20:30:14.655Z,3.67
2023-03-15T20:32:43.659Z,4.70
2023-03-15T20:35:12.566Z,5.57
2023-03-15T20:37:41.756Z,3.10
2023-03-15T20:40:12.672Z,3.03
2023-03-15T20:42:41.228Z,2.13
2023-03-15T20:45:12.722Z,5.40
2023-03-15T20:47:41.258Z,3.87
2023-03-15T20:50:11.765Z,5.90
2023-03-15T20:52:40.935Z,6.43
2023-03-15T20:55:09.964Z,5.07
2023-03-15T20:57:41.478Z,3.07
2023-03-15T21:00:16.965Z,2.60
2023-03-15T21:02:46.575Z,5.93
2023-03-15T21:05:16.390Z,3.07
2023-03-15T21:07:46.024Z,3.63
2023-03-15T21:10:15.347Z,2.93
2023-03-15T21:12:45.685Z,2.80
2023-03-15T21:15:18.017Z,3.53
2023-03-15T21:17:49.149Z,3.17
2023-03-15T21:20:18.342Z,4.20
2023-03-15T21:22:47.460Z,2.93
2023-03-15T21:25:17.111Z,3.13
2023-03-15T21:27:49.272Z,5.33
2023-03-15T21:30:20.055Z,2.77
2023-03-15T21:32:52.350Z,3.57
2023-03-15T21:35:22.454Z,4.97
2023-03-15T21:37:51.294Z,3.17
2023-03-15T21:40:20.354Z,6.00
2023-03-15T21:42:49.207Z,4.83
2023-03-15T21:45:19.364Z,5.10
2023-03-15T21:47:48.252Z,3.83
2023-03-15T21:50:17.100Z,4.83
2023-03-15T21:52:45.933Z,3.90
2023-03-15T21:55:15.700Z,4.10
2023-03-15T21:57:44.880Z,2.90
2023-03-15T22:00:16.566Z,4.30
2023-03-15T22:02:46.416Z,2.77
2023-03-15T22:05:15.153Z,3.90
2023-03-15T22:07:43.802Z,3.67
2023-03-15T22:10:14.438Z,4.77
2023-03-15T22:12:43.448Z,3.57
2023-03-15T22:15:12.301Z,4.30
2023-03-15T22:17:40.637Z,5.20
2023-03-15T22:20:16.467Z,6.43
2023-03-15T22:22:45.093Z,3.83
2023-03-15T22:25:13.882Z,2.20
2023-03-15T22:27:42.219Z,5.00
2023-03-15T22:30:13.653Z,2.63
2023-03-15T22:32:44.226Z,4.90
2023-03-15T22:35:15.869Z,7.97
2023-03-15T22:37:44.281Z,4.53
2023-03-15T22:40:14.750Z,3.93
2023-03-15T22:42:42.950Z,4.23
2023-03-15T22:45:11.642Z,2.30
2023-03-15T22:47:39.708Z,4.87
2023-03-15T22:50:08.620Z,5.13
2023-03-15T22:52:38.111Z,4.07
2023-03-15T22:55:07.840Z,2.93
2023-03-15T22:57:35.976Z,4.10
2023-03-15T23:00:04.474Z,2.43
2023-03-15T23:02:33.040Z,4.50
2023-03-15T23:05:01.680Z,3.50
2023-03-15T23:07:30.309Z,3.93
2023-03-15T23:09:59.871Z,5.47
2023-03-15T23:12:35.813Z,3.40
2023-03-15T23:15:05.495Z,2.90
2023-03-15T23:17:33.656Z,2.70
2023-03-15T23:20:01.865Z,4.43
2023-03-15T23:22:31.094Z,2.73
2023-03-15T23:25:00.629Z,4.30
2023-03-15T23:27:28.909Z,5.53
2023-03-15T23:29:57.039Z,8.43
2023-03-15T23:32:26.306Z,3.57
2023-03-15T23:34:54.916Z,3.60
2023-03-15T23:37:23.497Z,7.90
2023-03-15T23:39:52.912Z,4.17
2023-03-15T23:42:25.818Z,3.80
2023-03-15T23:44:54.635Z,3.57
2023-03-15T23:47:24.019Z,8.47
2023-03-15T23:49:52.921Z,5.57
2023-03-15T23:52:25.459Z,6.70
2023-03-15T23:54:53.961Z,4.57
2023-03-15T23:57:23.525Z,4.57
2023-03-15T23:59:51.618Z,3.70
